createdAt,value
2022-09-12T00:00:01.702Z,94.43
2022-09-12T00:01:10.651Z,94.64
2022-09-12T00:02:07.355Z,94.61
2022-09-12T00:03:04.103Z,94.74
2022-09-12T00:04:02.090Z,94.48
2022-09-12T00:04:59.182Z,94.18
2022-09-12T00:05:55.801Z,93.55
2022-09-12T00:06:52.608Z,93.27
2022-09-12T00:07:49.725Z,92.58
2022-09-12T00:08:46.627Z,92.49
2022-09-12T00:09:43.553Z,92.56
2022-09-12T00:10:41.875Z,92.67
2022-09-12T00:11:44.088Z,92.84
2022-09-12T00:12:41.204Z,93.06
2022-09-12T00:13:41.721Z,93.34
2022-09-12T00:14:38.743Z,94.07
2022-09-12T00:15:43.879Z,94.21
2022-09-12T00:16:41.184Z,94.41
2022-09-12T00:17:38.967Z,94.62
2022-09-12T00:18:35.564Z,94.70
2022-09-12T00:19:32.176Z,94.57
2022-09-12T00:20:28.780Z,94.72
2022-09-12T00:21:25.461Z,94.80
2022-09-12T00:22:22.115Z,95.27
2022-09-12T00:23:18.776Z,95.35
2022-09-12T00:24:15.404Z,95.42
2022-09-12T00:25:12.228Z,95.39
2022-09-12T00:26:09.613Z,95.59
2022-09-12T00:27:06.347Z,95.69
2022-09-12T00:28:02.996Z,95.75
2022-09-12T00:28:59.638Z,95.62
2022-09-12T00:29:56.354Z,95.71
2022-09-12T00:30:53.005Z,95.88
2022-09-12T00:31:49.664Z,95.93
2022-09-12T00:32:46.334Z,95.79
2022-09-12T00:33:43.582Z,95.42
2022-09-12T00:34:40.128Z,94.80
2022-09-12T00:35:50.291Z,94.13
2022-09-12T00:36:46.987Z,93.88
2022-09-12T00:37:43.588Z,93.52
2022-09-12T00:38:42.130Z,93.67
2022-09-12T00:39:39.170Z,93.22
2022-09-12T00:40:35.821Z,93.04
2022-09-12T00:41:38.714Z,93.10
2022-09-12T00:42:35.282Z,92.74
2022-09-12T00:43:39.806Z,92.55
2022-09-12T00:44:39.395Z,92.25
2022-09-12T00:45:36.110Z,91.93
2022-09-12T00:46:44.735Z,92.08
2022-09-12T00:47:42.156Z,92.36
2022-09-12T00:48:44.354Z,92.36
2022-09-12T00:49:52.069Z,93.04
2022-09-12T00:50:49.896Z,93.18
2022-09-12T00:51:56.035Z,93.38
2022-09-12T00:52:57.119Z,93.45
2022-09-12T00:53:55.606Z,94.32
2022-09-12T00:55:07.473Z,94.68
2022-09-12T00:56:04.172Z,94.88
2022-09-12T00:57:05.794Z,94.92
2022-09-12T00:58:09.197Z,94.66
2022-09-12T00:59:22.546Z,94.18
2022-09-12T01:00:21.396Z,94.18
2022-09-12T01:01:19.198Z,93.79
2022-09-12T01:02:16.290Z,93.50
2022-09-12T01:03:16.017Z,93.38
2022-09-12T01:04:13.592Z,93.84
2022-09-12T01:05:11.210Z,93.72
2022-09-12T01:06:11.968Z,93.74
2022-09-12T01:07:09.115Z,93.70
2022-09-12T01:08:06.348Z,93.64
2022-09-12T01:09:05.018Z,93.07
2022-09-12T01:10:01.926Z,92.95
2022-09-12T01:10:58.726Z,92.88
2022-09-12T01:11:55.932Z,92.52
2022-09-12T01:12:52.636Z,92.72
2022-09-12T01:13:50.787Z,92.71
2022-09-12T01:14:47.483Z,93.06
2022-09-12T01:15:44.146Z,93.41
2022-09-12T01:16:41.153Z,93.52
2022-09-12T01:17:48.891Z,93.61
2022-09-12T01:18:51.870Z,94.15
2022-09-12T01:20:31.881Z,94.55
2022-09-12T01:22:08.518Z,93.90
2022-09-12T01:23:26.096Z,93.53
2022-09-12T01:24:35.357Z,93.38
2022-09-12T01:26:13.561Z,94.17
2022-09-12T01:27:25.429Z,94.82
2022-09-12T01:28:49.163Z,95.31
2022-09-12T01:30:05.988Z,95.68
2022-09-12T01:31:09.045Z,95.92
2022-09-12T01:32:49.401Z,96.06
2022-09-12T01:34:15.363Z,96.74
2022-09-12T01:35:25.750Z,96.62
2022-09-12T01:36:49.559Z,96.80
2022-09-12T01:37:45.977Z,96.59
2022-09-12T01:38:48.263Z,96.34
2022-09-12T01:40:03.596Z,96.23
2022-09-12T01:41:31.144Z,96.00
2022-09-12T01:42:38.623Z,95.32
2022-09-12T01:43:53.522Z,94.68
2022-09-12T01:45:05.288Z,94.76
2022-09-12T01:46:35.219Z,95.07
2022-09-12T01:47:41.078Z,95.24
2022-09-12T01:48:58.082Z,95.90
2022-09-12T01:50:07.039Z,96.09
2022-09-12T01:51:32.363Z,95.24
2022-09-12T01:52:28.927Z,94.80
2022-09-12T01:53:32.367Z,94.03
2022-09-12T01:54:40.026Z,93.21
2022-09-12T01:55:46.484Z,92.74
2022-09-12T01:56:46.309Z,92.15
2022-09-12T01:57:51.333Z,92.21
2022-09-12T01:58:54.608Z,92.58
2022-09-12T01:59:57.699Z,92.75
2022-09-12T02:01:10.213Z,93.47
2022-09-12T02:02:17.039Z,94.02
2022-09-12T02:03:39.670Z,94.32
2022-09-12T02:04:44.861Z,94.75
2022-09-12T02:05:47.054Z,95.42
2022-09-12T02:06:56.737Z,95.97
2022-09-12T02:08:26.209Z,96.41
2022-09-12T02:09:39.838Z,96.27
2022-09-12T02:11:00.504Z,96.17
2022-09-12T02:12:00.870Z,95.62
2022-09-12T02:13:03.627Z,95.14
2022-09-12T02:14:09.268Z,94.51
2022-09-12T02:15:09.428Z,94.65
2022-09-12T02:16:12.745Z,94.31
2022-09-12T02:17:13.533Z,93.65
2022-09-12T02:18:14.638Z,93.44
2022-09-12T02:19:16.376Z,93.53
2022-09-12T02:20:47.410Z,93.40
2022-09-12T02:21:51.086Z,93.15
2022-09-12T02:22:50.282Z,92.75
2022-09-12T02:23:56.047Z,92.53
2022-09-12T02:24:59.630Z,92.16
2022-09-12T02:26:05.971Z,92.80
2022-09-12T02:27:11.628Z,93.07
2022-09-12T02:28:15.425Z,93.53
2022-09-12T02:29:12.117Z,93.31
2022-09-12T02:30:10.059Z,93.04
2022-09-12T02:31:40.264Z,92.58
2022-09-12T02:32:38.520Z,92.37
2022-09-12T02:34:13.555Z,93.11
2022-09-12T02:35:34.862Z,94.03
2022-09-12T02:37:00.903Z,93.85
2022-09-12T02:38:14.765Z,93.85
2022-09-12T02:39:11.414Z,93.99
2022-09-12T02:40:09.882Z,94.04
2022-09-12T02:41:07.373Z,93.73
2022-09-12T02:42:04.700Z,93.41
2022-09-12T02:43:03.110Z,93.55
2022-09-12T02:43:59.819Z,93.29
2022-09-12T02:44:57.392Z,92.91
2022-09-12T02:45:54.220Z,92.66
2022-09-12T02:46:55.686Z,92.15
2022-09-12T02:47:58.732Z,91.95
2022-09-12T02:48:56.595Z,91.75
2022-09-12T02:49:54.169Z,92.06
2022-09-12T02:50:51.339Z,92.06
2022-09-12T02:51:48.875Z,91.90
2022-09-12T02:52:46.639Z,91.71
2022-09-12T02:53:43.320Z,91.67
2022-09-12T02:54:40.563Z,91.64
2022-09-12T02:55:40.181Z,91.44
2022-09-12T02:56:41.915Z,91.23
2022-09-12T02:57:38.645Z,91.31
2022-09-12T02:58:35.470Z,91.36
2022-09-12T02:59:32.159Z,91.94
2022-09-12T03:00:34.967Z,92.67
2022-09-12T03:01:50.371Z,93.53
2022-09-12T03:03:05.367Z,93.67
2022-09-12T03:04:17.671Z,94.08
2022-09-12T03:05:24.960Z,93.91
2022-09-12T03:06:35.420Z,93.91
2022-09-12T03:07:39.807Z,93.78
2022-09-12T03:09:01.488Z,94.16
2022-09-12T03:10:12.307Z,93.54
2022-09-12T03:11:34.275Z,93.42
2022-09-12T03:12:55.499Z,93.67
2022-09-12T03:14:31.799Z,94.68
2022-09-12T03:15:41.630Z,95.61
2022-09-12T03:16:54.327Z,95.30
2022-09-12T03:17:56.747Z,95.82
2022-09-12T03:19:06.042Z,95.88
2022-09-12T03:20:19.848Z,96.18
2022-09-12T03:21:44.767Z,96.26
2022-09-12T03:22:56.621Z,96.79
2022-09-12T03:24:05.157Z,96.87
2022-09-12T03:25:21.522Z,97.10
2022-09-12T03:26:44.692Z,96.90
2022-09-12T03:27:47.002Z,97.02
2022-09-12T03:28:45.465Z,96.91
2022-09-12T03:29:44.718Z,96.63
2022-09-12T03:30:43.808Z,96.75
2022-09-12T03:31:50.388Z,96.95
2022-09-12T03:32:50.235Z,96.97
2022-09-12T03:33:46.833Z,97.30
2022-09-12T03:34:43.456Z,97.47
2022-09-12T03:35:40.234Z,97.47
2022-09-12T03:36:36.794Z,97.76
2022-09-12T03:37:33.553Z,97.78
2022-09-12T03:38:30.163Z,97.95
2022-09-12T03:39:27.091Z,97.56
2022-09-12T03:40:23.691Z,97.49
2022-09-12T03:41:20.953Z,97.34
2022-09-12T03:42:17.511Z,96.67
2022-09-12T03:43:14.086Z,96.64
2022-09-12T03:44:10.722Z,96.88
2022-09-12T03:45:08.847Z,96.61
2022-09-12T03:46:05.770Z,96.54
2022-09-12T03:47:02.426Z,96.62
2022-09-12T03:47:59.813Z,96.38
2022-09-12T03:48:56.568Z,96.12
2022-09-12T03:49:53.216Z,96.09
2022-09-12T03:50:49.781Z,96.07
2022-09-12T03:51:46.416Z,95.39
2022-09-12T03:52:43.009Z,95.23
2022-09-12T03:53:39.618Z,94.96
2022-09-12T03:54:36.407Z,94.68
2022-09-12T03:55:32.996Z,94.69
2022-09-12T03:56:30.303Z,94.22
2022-09-12T03:57:26.945Z,93.76
2022-09-12T03:58:24.291Z,93.29
2022-09-12T03:59:20.889Z,92.84
2022-09-12T04:00:19.876Z,92.64
2022-09-12T04:01:19.033Z,92.53
2022-09-12T04:02:15.774Z,92.18
2022-09-12T04:03:12.435Z,91.92
2022-09-12T04:04:11.800Z,92.14
2022-09-12T04:05:08.712Z,92.68
2022-09-12T04:06:05.712Z,93.56
2022-09-12T04:07:02.392Z,94.00
2022-09-12T04:07:59.038Z,95.16
2022-09-12T04:08:55.740Z,95.24
2022-09-12T04:09:53.288Z,95.57
2022-09-12T04:10:49.849Z,95.85
2022-09-12T04:11:46.535Z,96.10
2022-09-12T04:12:43.386Z,95.91
2022-09-12T04:13:41.640Z,95.91
2022-09-12T04:14:38.629Z,95.93
2022-09-12T04:15:35.187Z,95.37
2022-09-12T04:16:32.498Z,94.64
2022-09-12T04:17:29.082Z,94.03
2022-09-12T04:18:26.174Z,93.54
2022-09-12T04:19:23.610Z,93.00
2022-09-12T04:20:20.261Z,92.85
2022-09-12T04:21:19.741Z,93.45
2022-09-12T04:22:16.335Z,93.19
2022-09-12T04:23:12.913Z,93.31
2022-09-12T04:24:09.590Z,93.12
2022-09-12T04:25:07.287Z,93.27
2022-09-12T04:26:06.587Z,93.93
2022-09-12T04:27:07.586Z,94.34
2022-09-12T04:28:04.650Z,95.08
2022-09-12T04:29:01.236Z,95.45
2022-09-12T04:29:58.275Z,95.52
2022-09-12T04:30:55.748Z,95.85
2022-09-12T04:31:52.332Z,95.44
2022-09-12T04:32:48.886Z,95.35
2022-09-12T04:33:45.753Z,94.92
2022-09-12T04:34:42.324Z,95.38
2022-09-12T04:35:38.910Z,95.33
2022-09-12T04:36:35.692Z,95.82
2022-09-12T04:37:32.250Z,95.43
2022-09-12T04:38:29.077Z,95.39
2022-09-12T04:39:25.763Z,95.28
2022-09-12T04:40:22.601Z,95.04
2022-09-12T04:41:24.837Z,94.79
2022-09-12T04:42:21.432Z,94.70
2022-09-12T04:43:18.008Z,94.65
2022-09-12T04:44:15.086Z,94.75
2022-09-12T04:45:13.003Z,95.12
2022-09-12T04:46:11.681Z,95.38
2022-09-12T04:47:08.704Z,95.67
2022-09-12T04:48:05.372Z,95.67
2022-09-12T04:49:02.309Z,95.73
2022-09-12T04:49:59.029Z,95.37
2022-09-12T04:50:55.592Z,95.09
2022-09-12T04:51:54.977Z,95.08
2022-09-12T04:52:52.845Z,95.00
2022-09-12T04:53:52.069Z,94.86
2022-09-12T04:54:48.616Z,94.47
2022-09-12T04:55:45.244Z,94.41
2022-09-12T04:56:44.883Z,94.12
2022-09-12T04:57:41.495Z,93.83
2022-09-12T04:58:38.765Z,93.84
2022-09-12T04:59:35.761Z,93.61
2022-09-12T05:00:33.224Z,93.53
2022-09-12T05:01:30.378Z,93.26
2022-09-12T05:02:27.432Z,93.37
2022-09-12T05:03:24.050Z,92.74
2022-09-12T05:04:21.525Z,92.61
2022-09-12T05:05:18.214Z,92.90
2022-09-12T05:06:20.852Z,93.07
2022-09-12T05:07:17.437Z,93.33
2022-09-12T05:08:14.021Z,93.30
2022-09-12T05:09:12.588Z,93.51
2022-09-12T05:10:10.141Z,93.62
2022-09-12T05:11:22.713Z,93.59
2022-09-12T05:12:21.310Z,92.83
2022-09-12T05:13:17.966Z,92.58
2022-09-12T05:14:14.535Z,91.77
2022-09-12T05:15:11.685Z,90.88
2022-09-12T05:16:10.625Z,90.12
2022-09-12T05:17:08.555Z,90.02
2022-09-12T05:18:05.224Z,89.56
2022-09-12T05:19:01.819Z,89.10
2022-09-12T05:19:58.549Z,89.16
2022-09-12T05:20:56.074Z,87.56
2022-09-12T05:21:52.636Z,87.45
2022-09-12T05:22:49.174Z,87.44
2022-09-12T05:23:47.763Z,87.58
2022-09-12T05:24:49.880Z,87.66
2022-09-12T05:25:52.510Z,87.33
2022-09-12T05:26:49.065Z,87.15
2022-09-12T05:27:50.382Z,87.37
2022-09-12T05:28:49.405Z,86.76
2022-09-12T05:29:45.999Z,86.19
2022-09-12T05:30:42.645Z,85.92
2022-09-12T05:31:39.476Z,85.93
2022-09-12T05:32:36.149Z,85.23
2022-09-12T05:33:34.519Z,85.08
2022-09-12T05:34:31.196Z,84.63
2022-09-12T05:35:27.761Z,85.09
2022-09-12T05:36:27.029Z,85.29
2022-09-12T05:37:23.906Z,84.70
2022-09-12T05:38:20.507Z,84.84
2022-09-12T05:39:18.591Z,84.72
2022-09-12T05:40:17.808Z,84.71
2022-09-12T05:41:24.710Z,84.43
2022-09-12T05:42:21.900Z,84.75
2022-09-12T05:43:20.348Z,85.05
2022-09-12T05:44:17.701Z,85.19
2022-09-12T05:45:14.934Z,85.17
2022-09-12T05:46:14.870Z,84.63
2022-09-12T05:47:12.464Z,84.51
2022-09-12T05:48:09.078Z,83.65
2022-09-12T05:49:08.131Z,82.95
2022-09-12T05:50:10.762Z,82.15
2022-09-12T05:51:10.510Z,82.59
2022-09-12T05:52:07.733Z,82.74
2022-09-12T05:53:04.461Z,82.17
2022-09-12T05:54:03.458Z,81.42
2022-09-12T05:55:00.152Z,81.40
2022-09-12T05:56:14.164Z,80.96
2022-09-12T05:57:10.828Z,81.27
2022-09-12T05:58:07.482Z,81.15
2022-09-12T05:59:06.712Z,81.27
2022-09-12T06:00:05.873Z,81.22
2022-09-12T06:01:08.092Z,81.28
2022-09-12T06:02:04.760Z,82.76
2022-09-12T06:03:01.540Z,82.46
2022-09-12T06:04:03.280Z,79.11
2022-09-12T06:04:59.870Z,77.88
2022-09-12T06:05:56.463Z,79.63
2022-09-12T06:06:53.087Z,81.90
2022-09-12T06:07:49.649Z,81.82
2022-09-12T06:08:48.673Z,80.86
2022-09-12T06:09:45.220Z,80.56
2022-09-12T06:10:41.797Z,80.58
2022-09-12T06:11:42.399Z,79.72
2022-09-12T06:12:39.149Z,80.68
2022-09-12T06:13:37.739Z,80.46
2022-09-12T06:14:34.599Z,80.66
2022-09-12T06:15:31.175Z,78.19
2022-09-12T06:16:30.122Z,76.97
2022-09-12T06:17:26.784Z,79.11
2022-09-12T06:18:23.436Z,78.54
2022-09-12T06:19:22.341Z,79.50
2022-09-12T06:20:20.288Z,80.02
2022-09-12T06:21:16.892Z,78.61
2022-09-12T06:22:13.984Z,79.02
2022-09-12T06:23:10.593Z,78.89
2022-09-12T06:24:10.257Z,79.61
2022-09-12T06:25:07.361Z,79.22
2022-09-12T06:26:05.265Z,80.96
2022-09-12T06:27:02.548Z,81.02
2022-09-12T06:27:59.203Z,79.32
2022-09-12T06:28:57.725Z,78.94
2022-09-12T06:29:54.402Z,80.31
2022-09-12T06:30:51.154Z,80.67
2022-09-12T06:31:47.829Z,81.38
2022-09-12T06:32:44.647Z,81.19
2022-09-12T06:33:44.312Z,80.81
2022-09-12T06:34:40.910Z,79.65
2022-09-12T06:35:38.605Z,79.20
2022-09-12T06:36:42.288Z,78.49
2022-09-12T06:37:38.880Z,77.96
2022-09-12T06:38:35.588Z,76.86
2022-09-12T06:39:32.619Z,77.48
2022-09-12T06:40:29.847Z,77.47
2022-09-12T06:41:27.488Z,77.89
2022-09-12T06:42:24.860Z,77.00
2022-09-12T06:43:21.493Z,76.66
2022-09-12T06:44:22.404Z,75.57
2022-09-12T06:45:20.056Z,75.14
2022-09-12T06:46:16.824Z,77.85
2022-09-12T06:47:13.534Z,77.48
2022-09-12T06:48:10.131Z,78.17
2022-09-12T06:49:08.201Z,78.20
2022-09-12T06:50:05.702Z,77.67
2022-09-12T06:51:07.276Z,77.38
2022-09-12T06:52:03.987Z,77.01
2022-09-12T06:53:00.581Z,77.85
2022-09-12T06:53:58.152Z,77.53
2022-09-12T06:54:54.787Z,77.20
2022-09-12T06:56:01.688Z,77.47
2022-09-12T06:56:58.251Z,76.84
2022-09-12T06:57:55.485Z,77.43
2022-09-12T06:58:53.679Z,77.64
2022-09-12T06:59:50.806Z,77.14
2022-09-12T07:00:47.427Z,76.06
2022-09-12T07:01:44.355Z,75.64
2022-09-12T07:02:41.150Z,75.35
2022-09-12T07:03:39.173Z,75.41
2022-09-12T07:04:37.170Z,75.72
2022-09-12T07:05:34.141Z,75.46
2022-09-12T07:06:37.045Z,75.93
2022-09-12T07:07:35.877Z,75.24
2022-09-12T07:08:34.170Z,74.79
2022-09-12T07:09:30.943Z,75.26
2022-09-12T07:10:27.613Z,74.44
2022-09-12T07:11:26.693Z,73.37
2022-09-12T07:12:23.302Z,71.82
2022-09-12T07:13:19.960Z,72.85
2022-09-12T07:14:16.896Z,72.80
2022-09-12T07:15:13.624Z,72.32
2022-09-12T07:16:13.820Z,71.80
2022-09-12T07:17:12.600Z,71.98
2022-09-12T07:18:10.636Z,71.76
2022-09-12T07:19:08.756Z,69.72
2022-09-12T07:20:05.866Z,70.30
2022-09-12T07:21:02.990Z,70.41
2022-09-12T07:21:59.551Z,68.87
2022-09-12T07:22:56.235Z,70.30
2022-09-12T07:23:55.322Z,70.46
2022-09-12T07:24:53.491Z,70.14
2022-09-12T07:25:57.633Z,67.70
2022-09-12T07:26:54.643Z,69.07
2022-09-12T07:27:53.108Z,69.88
2022-09-12T07:28:54.656Z,69.48
2022-09-12T07:29:51.274Z,68.16
2022-09-12T07:30:47.943Z,66.51
2022-09-12T07:31:45.330Z,66.87
2022-09-12T07:32:41.967Z,67.41
2022-09-12T07:33:40.284Z,65.69
2022-09-12T07:34:37.305Z,65.24
2022-09-12T07:35:34.325Z,65.65
2022-09-12T07:36:31.091Z,65.51
2022-09-12T07:37:31.228Z,66.50
2022-09-12T07:38:27.870Z,64.38
2022-09-12T07:39:24.685Z,65.28
2022-09-12T07:40:21.905Z,65.13
2022-09-12T07:41:24.693Z,66.51
2022-09-12T07:42:21.311Z,66.99
2022-09-12T07:43:17.987Z,65.51
2022-09-12T07:44:14.793Z,64.30
2022-09-12T07:45:11.412Z,66.70
2022-09-12T07:46:09.343Z,67.12
2022-09-12T07:47:06.432Z,67.36
2022-09-12T07:48:04.073Z,66.73
2022-09-12T07:49:01.568Z,64.36
2022-09-12T07:49:58.615Z,67.10
2022-09-12T07:51:04.447Z,66.57
2022-09-12T07:52:01.239Z,67.77
2022-09-12T07:52:57.897Z,67.25
2022-09-12T07:53:56.439Z,67.56
2022-09-12T07:54:53.146Z,67.85
2022-09-12T07:55:56.784Z,67.22
2022-09-12T07:56:53.554Z,67.73
2022-09-12T07:57:51.171Z,66.57
2022-09-12T07:58:48.603Z,67.35
2022-09-12T07:59:53.379Z,67.89
2022-09-12T08:00:50.661Z,67.26
2022-09-12T08:01:47.773Z,67.42
2022-09-12T08:02:44.794Z,67.32
2022-09-12T08:03:43.281Z,64.95
2022-09-12T08:04:42.192Z,65.70
2022-09-12T08:05:38.883Z,65.97
2022-09-12T08:06:37.031Z,68.13
2022-09-12T08:07:34.215Z,66.94
2022-09-12T08:08:31.234Z,67.29
2022-09-12T08:09:27.960Z,69.26
2022-09-12T08:10:24.809Z,69.03
2022-09-12T08:11:23.086Z,67.66
2022-09-12T08:12:20.521Z,66.82
2022-09-12T08:13:17.294Z,69.68
2022-09-12T08:14:13.901Z,69.72
2022-09-12T08:15:10.817Z,68.90
2022-09-12T08:16:12.330Z,68.29
2022-09-12T08:17:09.088Z,66.76
2022-09-12T08:18:05.860Z,65.77
2022-09-12T08:19:03.814Z,64.43
2022-09-12T08:20:00.560Z,65.09
2022-09-12T08:21:24.844Z,65.91
2022-09-12T08:22:22.093Z,65.87
2022-09-12T08:23:21.366Z,65.06
2022-09-12T08:24:18.005Z,65.70
2022-09-12T08:25:15.198Z,65.42
2022-09-12T08:26:12.678Z,64.35
2022-09-12T08:27:09.444Z,64.98
2022-09-12T08:28:06.337Z,65.85
2022-09-12T08:29:04.303Z,66.36
2022-09-12T08:30:00.860Z,64.65
2022-09-12T08:31:05.578Z,64.19
2022-09-12T08:32:03.007Z,64.79
2022-09-12T08:32:59.597Z,66.76
2022-09-12T08:33:57.787Z,65.69
2022-09-12T08:34:54.365Z,65.49
2022-09-12T08:35:50.927Z,64.90
2022-09-12T08:36:48.005Z,64.57
2022-09-12T08:37:44.581Z,64.20
2022-09-12T08:38:44.023Z,64.18
2022-09-12T08:39:40.742Z,62.93
2022-09-12T08:40:53.273Z,63.29
2022-09-12T08:41:59.172Z,64.94
2022-09-12T08:43:31.290Z,64.07
2022-09-12T08:44:53.486Z,62.83
2022-09-12T08:45:59.216Z,63.40
2022-09-12T08:47:11.053Z,64.65
2022-09-12T08:48:10.190Z,65.76
2022-09-12T08:49:12.675Z,65.28
2022-09-12T08:50:12.176Z,64.17
2022-09-12T08:51:15.139Z,62.85
2022-09-12T08:52:17.350Z,62.81
2022-09-12T08:53:20.336Z,63.04
2022-09-12T08:54:25.296Z,62.20
2022-09-12T08:55:38.233Z,64.18
2022-09-12T08:56:37.687Z,65.63
2022-09-12T08:57:34.482Z,65.63
2022-09-12T08:58:39.562Z,64.71
2022-09-12T08:59:39.862Z,65.39
2022-09-12T09:01:07.408Z,65.38
2022-09-12T09:02:14.873Z,64.02
2022-09-12T09:03:33.456Z,64.03
2022-09-12T09:04:51.918Z,61.82
2022-09-12T09:06:03.105Z,61.43
2022-09-12T09:07:05.964Z,62.26
2022-09-12T09:08:08.963Z,63.87
2022-09-12T09:09:05.491Z,62.92
2022-09-12T09:10:20.475Z,62.35
2022-09-12T09:11:55.117Z,62.70
2022-09-12T09:13:35.653Z,63.54
2022-09-12T09:14:50.416Z,63.72
2022-09-12T09:16:05.882Z,63.60
2022-09-12T09:17:03.345Z,64.61
2022-09-12T09:18:06.450Z,64.78
2022-09-12T09:19:10.873Z,65.89
2022-09-12T09:20:41.310Z,63.09
2022-09-12T09:21:45.132Z,64.21
2022-09-12T09:23:06.429Z,63.74
2022-09-12T09:24:10.331Z,60.92
2022-09-12T09:25:22.117Z,60.72
2022-09-12T09:26:40.205Z,61.62
2022-09-12T09:27:46.515Z,61.66
2022-09-12T09:28:49.997Z,61.01
2022-09-12T09:29:51.223Z,62.15
2022-09-12T09:30:47.869Z,63.13
2022-09-12T09:31:49.979Z,61.71
2022-09-12T09:32:51.039Z,59.75
2022-09-12T09:33:55.497Z,59.50
2022-09-12T09:34:52.372Z,59.63
2022-09-12T09:35:59.227Z,60.34
2022-09-12T09:37:03.983Z,58.71
2022-09-12T09:38:06.776Z,58.49
2022-09-12T09:39:24.650Z,59.65
2022-09-12T09:40:31.862Z,57.90
2022-09-12T09:41:43.839Z,59.99
2022-09-12T09:42:54.017Z,58.85
2022-09-12T09:43:50.753Z,56.60
2022-09-12T09:44:49.134Z,57.06
2022-09-12T09:45:47.874Z,59.10
2022-09-12T09:46:44.964Z,60.63
2022-09-12T09:47:43.221Z,58.69
2022-09-12T09:48:48.808Z,59.64
2022-09-12T09:49:45.788Z,60.62
2022-09-12T09:50:43.861Z,60.37
2022-09-12T09:51:42.786Z,59.09
2022-09-12T09:52:40.068Z,58.53
2022-09-12T09:53:53.365Z,57.89
2022-09-12T09:54:57.828Z,58.98
2022-09-12T09:55:56.795Z,59.01
2022-09-12T09:56:53.415Z,59.80
2022-09-12T09:57:52.068Z,59.22
2022-09-12T09:58:48.801Z,58.80
2022-09-12T09:59:45.378Z,57.07
2022-09-12T10:00:42.073Z,57.65
2022-09-12T10:01:51.538Z,58.29
2022-09-12T10:03:13.572Z,57.61
2022-09-12T10:04:23.488Z,59.10
2022-09-12T10:05:20.109Z,56.65
2022-09-12T10:06:25.605Z,56.17
2022-09-12T10:07:23.196Z,57.18
2022-09-12T10:08:21.350Z,56.70
2022-09-12T10:09:19.708Z,58.69
2022-09-12T10:10:19.079Z,56.70
2022-09-12T10:11:15.602Z,55.71
2022-09-12T10:12:30.832Z,56.76
2022-09-12T10:13:43.002Z,56.60
2022-09-12T10:14:41.732Z,57.14
2022-09-12T10:15:38.452Z,57.38
2022-09-12T10:16:52.712Z,54.98
2022-09-12T10:17:50.997Z,56.36
2022-09-12T10:18:48.549Z,53.49
2022-09-12T10:19:52.645Z,54.17
2022-09-12T10:20:57.196Z,55.07
2022-09-12T10:21:57.064Z,55.79
2022-09-12T10:22:53.840Z,53.18
2022-09-12T10:24:04.017Z,53.74
2022-09-12T10:25:01.436Z,52.55
2022-09-12T10:26:01.546Z,52.73
2022-09-12T10:27:05.944Z,52.50
2022-09-12T10:28:02.949Z,53.59
2022-09-12T10:29:06.841Z,53.14
2022-09-12T10:30:17.711Z,51.92
2022-09-12T10:31:17.212Z,53.35
2022-09-12T10:32:30.507Z,52.60
2022-09-12T10:33:28.361Z,53.11
2022-09-12T10:34:25.569Z,51.96
2022-09-12T10:35:31.062Z,53.12
2022-09-12T10:36:37.311Z,53.57
2022-09-12T10:37:37.381Z,51.52
2022-09-12T10:38:34.540Z,51.60
2022-09-12T10:39:32.773Z,50.85
2022-09-12T10:40:34.555Z,52.48
2022-09-12T10:41:39.992Z,52.81
2022-09-12T10:42:53.209Z,52.22
2022-09-12T10:43:50.595Z,52.80
2022-09-12T10:44:54.323Z,52.22
2022-09-12T10:45:51.157Z,52.01
2022-09-12T10:46:47.848Z,51.94
2022-09-12T10:47:44.478Z,50.50
2022-09-12T10:48:41.827Z,49.96
2022-09-12T10:49:40.389Z,51.83
2022-09-12T10:50:44.095Z,51.53
2022-09-12T10:51:40.751Z,50.96
2022-09-12T10:52:37.316Z,51.37
2022-09-12T10:53:43.628Z,49.40
2022-09-12T10:54:40.744Z,50.71
2022-09-12T10:55:37.366Z,51.97
2022-09-12T10:56:39.512Z,52.35
2022-09-12T10:57:47.821Z,51.59
2022-09-12T10:58:50.256Z,51.41
2022-09-12T10:59:52.731Z,52.09
2022-09-12T11:00:59.652Z,51.80
2022-09-12T11:02:01.816Z,52.60
2022-09-12T11:03:43.353Z,52.66
2022-09-12T11:05:00.767Z,52.58
2022-09-12T11:06:02.038Z,52.17
2022-09-12T11:07:19.640Z,52.20
2022-09-12T11:08:34.716Z,49.57
2022-09-12T11:09:56.024Z,51.35
2022-09-12T11:11:05.698Z,51.68
2022-09-12T11:12:17.245Z,51.67
2022-09-12T11:13:22.788Z,51.05
2022-09-12T11:14:44.041Z,51.86
2022-09-12T11:15:49.156Z,52.46
2022-09-12T11:16:57.861Z,52.08
2022-09-12T11:18:05.380Z,51.36
2022-09-12T11:19:35.923Z,50.90
2022-09-12T11:20:58.723Z,49.83
2022-09-12T11:22:07.363Z,50.09
2022-09-12T11:23:24.577Z,50.11
2022-09-12T11:24:21.269Z,50.09
2022-09-12T11:25:41.149Z,50.87
2022-09-12T11:27:10.025Z,49.74
2022-09-12T11:28:34.584Z,51.14
2022-09-12T11:29:59.254Z,50.84
2022-09-12T11:31:10.903Z,51.02
2022-09-12T11:32:22.662Z,51.97
2022-09-12T11:33:25.471Z,51.23
2022-09-12T11:34:49.753Z,51.99
2022-09-12T11:35:55.155Z,50.53
2022-09-12T11:37:17.951Z,50.18
2022-09-12T11:38:51.438Z,49.52
2022-09-12T11:39:55.693Z,49.35
2022-09-12T11:41:06.536Z,50.40
2022-09-12T11:42:06.282Z,50.81
2022-09-12T11:43:11.997Z,50.91
2022-09-12T11:44:19.125Z,50.78
2022-09-12T11:45:46.058Z,49.63
2022-09-12T11:46:46.719Z,48.37
2022-09-12T11:47:50.245Z,48.91
2022-09-12T11:49:15.529Z,48.71
2022-09-12T11:50:38.417Z,48.44
2022-09-12T11:51:42.660Z,48.44
2022-09-12T11:52:40.673Z,49.08
2022-09-12T11:53:40.823Z,47.35
2022-09-12T11:54:59.995Z,48.03
2022-09-12T11:56:08.745Z,47.91
2022-09-12T11:57:20.676Z,48.68
2022-09-12T11:58:21.080Z,48.86
2022-09-12T11:59:31.223Z,48.73
2022-09-12T12:00:34.207Z,49.34
2022-09-12T12:01:48.500Z,50.09
2022-09-12T12:03:00.396Z,49.77
2022-09-12T12:03:58.670Z,50.68
2022-09-12T12:05:17.070Z,50.93
2022-09-12T12:06:21.371Z,50.44
2022-09-12T12:07:18.069Z,50.98
2022-09-12T12:08:14.918Z,50.78
2022-09-12T12:09:13.435Z,49.49
2022-09-12T12:10:36.971Z,50.36
2022-09-12T12:11:38.443Z,49.89
2022-09-12T12:12:35.920Z,48.14
2022-09-12T12:13:32.508Z,48.13
2022-09-12T12:14:51.064Z,46.85
2022-09-12T12:15:51.398Z,45.94
2022-09-12T12:16:49.607Z,45.68
2022-09-12T12:18:03.588Z,44.33
2022-09-12T12:19:02.063Z,46.00
2022-09-12T12:20:07.633Z,45.57
2022-09-12T12:21:43.972Z,44.18
2022-09-12T12:22:52.408Z,44.14
2022-09-12T12:24:10.135Z,42.97
2022-09-12T12:25:12.884Z,43.23
2022-09-12T12:26:58.567Z,42.58
2022-09-12T12:27:59.201Z,43.60
2022-09-12T12:28:58.866Z,44.45
2022-09-12T12:29:55.520Z,44.03
2022-09-12T12:31:00.122Z,41.86
2022-09-12T12:31:59.413Z,41.94
2022-09-12T12:33:10.911Z,41.23
2022-09-12T12:34:46.805Z,42.27
2022-09-12T12:36:01.699Z,42.38
2022-09-12T12:37:00.713Z,43.33
2022-09-12T12:38:00.079Z,43.86
2022-09-12T12:38:56.741Z,44.31
2022-09-12T12:40:04.638Z,44.17
2022-09-12T12:41:19.465Z,44.59
2022-09-12T12:42:34.567Z,44.43
2022-09-12T12:43:32.214Z,44.05
2022-09-12T12:44:44.022Z,44.55
2022-09-12T12:45:40.584Z,45.24
2022-09-12T12:46:38.587Z,46.11
2022-09-12T12:47:38.306Z,45.49
2022-09-12T12:48:59.042Z,45.22
2022-09-12T12:50:00.378Z,45.25
2022-09-12T12:51:36.181Z,44.56
2022-09-12T12:52:58.837Z,44.64
2022-09-12T12:53:55.857Z,46.79
2022-09-12T12:54:56.412Z,47.71
2022-09-12T12:55:55.907Z,46.65
2022-09-12T12:57:02.551Z,45.00
2022-09-12T12:58:01.210Z,46.06
2022-09-12T12:59:00.802Z,45.04
2022-09-12T13:00:25.621Z,43.86
2022-09-12T13:01:23.721Z,46.07
2022-09-12T13:02:35.200Z,45.06
2022-09-12T13:03:34.165Z,45.24
2022-09-12T13:04:32.646Z,44.70
2022-09-12T13:05:38.226Z,45.52
2022-09-12T13:06:41.460Z,46.55
2022-09-12T13:07:40.089Z,45.30
2022-09-12T13:08:43.703Z,45.61
2022-09-12T13:09:49.562Z,44.09
2022-09-12T13:10:57.999Z,43.82
2022-09-12T13:13:05.233Z,44.52
2022-09-12T13:14:09.488Z,43.57
2022-09-12T13:15:47.149Z,41.78
2022-09-12T13:17:00.031Z,42.14
2022-09-12T13:18:03.170Z,41.61
2022-09-12T13:19:33.492Z,41.78
2022-09-12T13:20:33.572Z,43.02
2022-09-12T13:21:30.188Z,42.09
2022-09-12T13:22:46.557Z,41.47
2022-09-12T13:23:44.284Z,42.37
2022-09-12T13:24:47.115Z,42.85
2022-09-12T13:25:53.001Z,42.90
2022-09-12T13:26:49.634Z,42.40
2022-09-12T13:28:04.432Z,42.63
2022-09-12T13:29:15.094Z,42.53